^^
Meteo Knjazevac Station Historical Data
Daily Summary for June 12, 2021 Units:  English    Metric   Both
Daily Weekly Monthly Yearly Custom
  High: Low: Average:
Temperature: 69.3 °F 61.7 °F 65.3 °F
Dew Point: 60.2 °F 57.5 °F 58.8 °F
Humidity: 86% 73% 80%
Wind Speed: 2mph 0mph 0.5mph
Wind Gust: 6mph - -
Wind- - SW
Pressure: 30.04 in 30.00 in -
Precipitation: 0.00 in    
Historical Graphs
 
 
Tabular Data for June 12, 2021
Time Temperature Dew Point Pressure Wind Wind Speed Wind Gust Humidity Rainfall Rate (Hourly) solar Conditions
00:00 69.3 °F 60.2 °F 30.00 in Calm   2 mph 73% 0.00 in 0 W/m2
00:10 68.9 °F 59.9 °F 30.00 in Calm   2 mph 73% 0.00 in 0 W/m2
00:20 68.7 °F 60.1 °F 30.01 in Calm   2 mph 74% 0.00 in 0 W/m2
00:30 68.2 °F 60 °F 30.00 in SW 1 mph 2 mph 75% 0.00 in 0 W/m2
00:40 67.5 °F 59.3 °F 30.01 in Calm   3 mph 75% 0.00 in 0 W/m2
00:50 67.3 °F 59.1 °F 30.01 in NNW 1 mph 3 mph 75% 0.00 in 0 W/m2
01:00 67.3 °F 59.8 °F 30.01 in Calm   2 mph 77% 0.00 in 0 W/m2
01:10 66.9 °F 59.5 °F 30.01 in Calm   2 mph 77% 0.00 in 0 W/m2
01:20 66.6 °F 59.5 °F 30.01 in NW 1 mph 3 mph 78% 0.00 in 0 W/m2
01:30 66.4 °F 59.3 °F 30.01 in Calm   2 mph 78% 0.00 in 0 W/m2
01:40 66.4 °F 59.3 °F 30.01 in Calm   2 mph 78% 0.00 in 0 W/m2
01:50 65.7 °F 59 °F 30.01 in Calm   2 mph 79% 0.00 in 0 W/m2
02:00 65.1 °F 58.8 °F 30.01 in WSW 2 mph 2 mph 80% 0.00 in 0 W/m2
02:10 64.6 °F 58.3 °F 30.02 in Calm   2 mph 80% 0.00 in 0 W/m2
02:20 64.6 °F 58.6 °F 30.02 in NNE 2 mph 6 mph 81% 0.00 in 0 W/m2
02:30 64.4 °F 58.4 °F 30.02 in Calm   2 mph 81% 0.00 in 0 W/m2
02:40 64.2 °F 58.3 °F 30.02 in North 1 mph 2 mph 81% 0.00 in 0 W/m2
02:50 64 °F 58.1 °F 30.02 in Calm   2 mph 81% 0.00 in 0 W/m2
03:00 63.9 °F 58.6 °F 30.02 in Calm   1 mph 83% 0.00 in 0 W/m2
03:10 63.7 °F 58.4 °F 30.03 in Calm   1 mph 83% 0.00 in 0 W/m2
03:20 63.3 °F 58.1 °F 30.03 in West 1 mph 2 mph 83% 0.00 in 0 W/m2
03:30 63 °F 58 °F 30.03 in Calm   2 mph 84% 0.00 in 0 W/m2
03:40 62.6 °F 58 °F 30.04 in Calm   2 mph 85% 0.00 in 0 W/m2
03:50 62.4 °F 57.9 °F 30.04 in West 1 mph 3 mph 85% 0.00 in 0 W/m2
04:00 62.1 °F 57.5 °F 30.04 in WNW 1 mph 3 mph 85% 0.00 in 0 W/m2
04:10 61.7 °F 57.5 °F 30.04 in West 1 mph 2 mph 86% 0.00 in 0 W/m2
Knjazevac, Serbia
Compliments of Weather Underground - 2 mb